sensor_id;sensor_type;location;lat;lon;timestamp;P1;durP1;ratioP1;P2;durP2;ratioP2
14235;SDS011;7202;50.718;7.072;2024-03-22T00:01:16;18.10;;;10.73;;
14235;SDS011;7202;50.718;7.072;2024-03-22T00:04:01;13.02;;;9.27;;
14235;SDS011;7202;50.718;7.072;2024-03-22T00:06:47;16.55;;;10.30;;
14235;SDS011;7202;50.718;7.072;2024-03-22T00:09:33;15.85;;;9.68;;
14235;SDS011;7202;50.718;7.072;2024-03-22T00:12:20;15.18;;;9.30;;
14235;SDS011;7202;50.718;7.072;2024-03-22T00:15:07;16.98;;;9.52;;
14235;SDS011;7202;50.718;7.072;2024-03-22T00:17:55;13.15;;;9.38;;
14235;SDS011;7202;50.718;7.072;2024-03-22T00:20:40;14.02;;;9.30;;
14235;SDS011;7202;50.718;7.072;2024-03-22T00:23:26;14.82;;;9.45;;
14235;SDS011;7202;50.718;7.072;2024-03-22T00:26:11;14.32;;;8.70;;
14235;SDS011;7202;50.718;7.072;2024-03-22T00:28:57;12.50;;;8.77;;
14235;SDS011;7202;50.718;7.072;2024-03-22T00:31:42;13.52;;;9.10;;
14235;SDS011;7202;50.718;7.072;2024-03-22T00:34:31;14.25;;;8.93;;
14235;SDS011;7202;50.718;7.072;2024-03-22T00:37:16;14.77;;;8.82;;
14235;SDS011;7202;50.718;7.072;2024-03-22T00:40:02;18.77;;;9.10;;
14235;SDS011;7202;50.718;7.072;2024-03-22T00:42:48;15.68;;;8.85;;
14235;SDS011;7202;50.718;7.072;2024-03-22T00:45:35;12.50;;;7.97;;
14235;SDS011;7202;50.718;7.072;2024-03-22T00:48:20;10.63;;;7.53;;
14235;SDS011;7202;50.718;7.072;2024-03-22T00:51:08;14.38;;;8.52;;
14235;SDS011;7202;50.718;7.072;2024-03-22T00:53:54;12.50;;;7.72;;
14235;SDS011;7202;50.718;7.072;2024-03-22T00:56:39;12.38;;;7.20;;
14235;SDS011;7202;50.718;7.072;2024-03-22T00:59:25;12.00;;;8.05;;
14235;SDS011;7202;50.718;7.072;2024-03-22T01:02:10;15.15;;;7.65;;
14235;SDS011;7202;50.718;7.072;2024-03-22T01:04:56;11.80;;;7.30;;
14235;SDS011;7202;50.718;7.072;2024-03-22T01:07:43;12.15;;;7.43;;
14235;SDS011;7202;50.718;7.072;2024-03-22T01:10:29;10.55;;;7.22;;
14235;SDS011;7202;50.718;7.072;2024-03-22T01:13:14;13.98;;;7.82;;
14235;SDS011;7202;50.718;7.072;2024-03-22T01:16:01;14.98;;;6.63;;
14235;SDS011;7202;50.718;7.072;2024-03-22T01:18:46;12.45;;;6.78;;
14235;SDS011;7202;50.718;7.072;2024-03-22T01:21:32;12.13;;;7.15;;
14235;SDS011;7202;50.718;7.072;2024-03-22T01:24:19;14.23;;;7.07;;
14235;SDS011;7202;50.718;7.072;2024-03-22T01:27:05;10.60;;;6.60;;
14235;SDS011;7202;50.718;7.072;2024-03-22T01:29:51;9.50;;;6.70;;
14235;SDS011;7202;50.718;7.072;2024-03-22T01:32:37;9.50;;;6.72;;
14235;SDS011;7202;50.718;7.072;2024-03-22T01:35:22;10.35;;;6.70;;
14235;SDS011;7202;50.718;7.072;2024-03-22T01:38:08;11.18;;;6.95;;
14235;SDS011;7202;50.718;7.072;2024-03-22T01:40:55;11.57;;;6.35;;
14235;SDS011;7202;50.718;7.072;2024-03-22T01:43:41;9.88;;;6.65;;
14235;SDS011;7202;50.718;7.072;2024-03-22T01:46:27;10.48;;;6.78;;
14235;SDS011;7202;50.718;7.072;2024-03-22T01:49:13;12.25;;;7.03;;
14235;SDS011;7202;50.718;7.072;2024-03-22T01:52:02;9.85;;;6.20;;
14235;SDS011;7202;50.718;7.072;2024-03-22T01:54:48;9.85;;;6.50;;
14235;SDS011;7202;50.718;7.072;2024-03-22T01:57:36;11.93;;;6.78;;
14235;SDS011;7202;50.718;7.072;2024-03-22T02:00:22;10.80;;;6.97;;
14235;SDS011;7202;50.718;7.072;2024-03-22T02:03:09;9.55;;;6.28;;
14235;SDS011;7202;50.718;7.072;2024-03-22T02:05:54;11.18;;;6.43;;
14235;SDS011;7202;50.718;7.072;2024-03-22T02:08:41;11.23;;;6.70;;
14235;SDS011;7202;50.718;7.072;2024-03-22T02:11:28;9.95;;;5.80;;
14235;SDS011;7202;50.718;7.072;2024-03-22T02:14:16;9.75;;;6.40;;
14235;SDS011;7202;50.718;7.072;2024-03-22T02:17:01;10.38;;;6.47;;
14235;SDS011;7202;50.718;7.072;2024-03-22T02:19:47;11.88;;;6.60;;
14235;SDS011;7202;50.718;7.072;2024-03-22T02:22:32;12.38;;;6.70;;
14235;SDS011;7202;50.718;7.072;2024-03-22T02:25:19;10.18;;;6.22;;
14235;SDS011;7202;50.718;7.072;2024-03-22T02:28:05;10.32;;;6.40;;
14235;SDS011;7202;50.718;7.072;2024-03-22T02:30:51;10.75;;;6.75;;
14235;SDS011;7202;50.718;7.072;2024-03-22T02:33:36;9.13;;;5.85;;
14235;SDS011;7202;50.718;7.072;2024-03-22T02:36:22;10.88;;;6.47;;
14235;SDS011;7202;50.718;7.072;2024-03-22T02:39:07;12.95;;;6.60;;
14235;SDS011;7202;50.718;7.072;2024-03-22T02:41:55;12.63;;;6.50;;
14235;SDS011;7202;50.718;7.072;2024-03-22T02:44:41;9.32;;;6.15;;
14235;SDS011;7202;50.718;7.072;2024-03-22T02:47:28;9.27;;;6.30;;
14235;SDS011;7202;50.718;7.072;2024-03-22T02:53:27;9.60;;;5.88;;
14235;SDS011;7202;50.718;7.072;2024-03-22T02:56:13;12.88;;;6.30;;
14235;SDS011;7202;50.718;7.072;2024-03-22T02:59:00;11.32;;;6.97;;
14235;SDS011;7202;50.718;7.072;2024-03-22T03:01:46;11.13;;;7.18;;
14235;SDS011;7202;50.718;7.072;2024-03-22T03:04:31;12.55;;;7.32;;
14235;SDS011;7202;50.718;7.072;2024-03-22T03:07:17;13.70;;;7.53;;
14235;SDS011;7202;50.718;7.072;2024-03-22T03:10:03;9.40;;;6.45;;
14235;SDS011;7202;50.718;7.072;2024-03-22T03:12:50;9.50;;;6.63;;
14235;SDS011;7202;50.718;7.072;2024-03-22T03:15:38;10.25;;;6.22;;
14235;SDS011;7202;50.718;7.072;2024-03-22T03:18:25;9.85;;;6.78;;
14235;SDS011;7202;50.718;7.072;2024-03-22T03:21:10;8.55;;;5.93;;
14235;SDS011;7202;50.718;7.072;2024-03-22T03:23:57;10.55;;;6.05;;
14235;SDS011;7202;50.718;7.072;2024-03-22T03:26:43;8.98;;;6.10;;
14235;SDS011;7202;50.718;7.072;2024-03-22T03:29:30;9.70;;;6.03;;
14235;SDS011;7202;50.718;7.072;2024-03-22T03:32:17;11.15;;;6.18;;
14235;SDS011;7202;50.718;7.072;2024-03-22T03:35:04;9.55;;;5.97;;
14235;SDS011;7202;50.718;7.072;2024-03-22T03:37:51;10.50;;;5.88;;
14235;SDS011;7202;50.718;7.072;2024-03-22T03:40:37;9.65;;;5.90;;
14235;SDS011;7202;50.718;7.072;2024-03-22T03:43:24;11.38;;;6.18;;
14235;SDS011;7202;50.718;7.072;2024-03-22T03:46:09;9.20;;;6.68;;
14235;SDS011;7202;50.718;7.072;2024-03-22T03:48:57;11.45;;;6.25;;
14235;SDS011;7202;50.718;7.072;2024-03-22T03:51:43;10.32;;;6.43;;
14235;SDS011;7202;50.718;7.072;2024-03-22T03:54:29;8.82;;;6.38;;
14235;SDS011;7202;50.718;7.072;2024-03-22T03:57:15;10.48;;;6.28;;
14235;SDS011;7202;50.718;7.072;2024-03-22T04:00:02;10.75;;;6.47;;
14235;SDS011;7202;50.718;7.072;2024-03-22T04:02:50;11.25;;;6.57;;
14235;SDS011;7202;50.718;7.072;2024-03-22T04:05:38;11.52;;;6.40;;
14235;SDS011;7202;50.718;7.072;2024-03-22T04:08:23;10.68;;;6.70;;
14235;SDS011;7202;50.718;7.072;2024-03-22T04:11:10;9.23;;;6.65;;
14235;SDS011;7202;50.718;7.072;2024-03-22T04:13:56;10.25;;;8.00;;
14235;SDS011;7202;50.718;7.072;2024-03-22T04:16:42;12.82;;;6.80;;
14235;SDS011;7202;50.718;7.072;2024-03-22T04:19:27;11.43;;;6.63;;
14235;SDS011;7202;50.718;7.072;2024-03-22T04:22:15;12.18;;;7.15;;
14235;SDS011;7202;50.718;7.072;2024-03-22T04:25:00;9.52;;;6.10;;
14235;SDS011;7202;50.718;7.072;2024-03-22T04:27:46;9.05;;;6.38;;
14235;SDS011;7202;50.718;7.072;2024-03-22T04:30:31;12.15;;;6.80;;
14235;SDS011;7202;50.718;7.072;2024-03-22T04:33:17;12.23;;;7.53;;
14235;SDS011;7202;50.718;7.072;2024-03-22T04:36:04;9.95;;;7.07;;
14235;SDS011;7202;50.718;7.072;2024-03-22T04:38:52;15.63;;;7.50;;
14235;SDS011;7202;50.718;7.072;2024-03-22T04:41:38;11.45;;;6.75;;
14235;SDS011;7202;50.718;7.072;2024-03-22T04:44:24;12.00;;;7.28;;
14235;SDS011;7202;50.718;7.072;2024-03-22T04:47:10;11.27;;;6.95;;
14235;SDS011;7202;50.718;7.072;2024-03-22T04:49:55;12.48;;;7.13;;
14235;SDS011;7202;50.718;7.072;2024-03-22T04:52:41;11.65;;;6.90;;
14235;SDS011;7202;50.718;7.072;2024-03-22T04:55:29;8.70;;;6.80;;
14235;SDS011;7202;50.718;7.072;2024-03-22T04:58:14;11.68;;;7.00;;
14235;SDS011;7202;50.718;7.072;2024-03-22T05:01:01;13.77;;;7.75;;
14235;SDS011;7202;50.718;7.072;2024-03-22T05:03:46;12.38;;;7.28;;
14235;SDS011;7202;50.718;7.072;2024-03-22T05:06:33;11.13;;;7.00;;
14235;SDS011;7202;50.718;7.072;2024-03-22T05:09:18;9.60;;;6.47;;
14235;SDS011;7202;50.718;7.072;2024-03-22T05:12:05;11.32;;;7.13;;
14235;SDS011;7202;50.718;7.072;2024-03-22T05:14:51;11.02;;;7.32;;
14235;SDS011;7202;50.718;7.072;2024-03-22T05:17:37;13.35;;;7.40;;
14235;SDS011;7202;50.718;7.072;2024-03-22T05:20:23;11.20;;;7.32;;
14235;SDS011;7202;50.718;7.072;2024-03-22T05:23:10;10.82;;;6.97;;
14235;SDS011;7202;50.718;7.072;2024-03-22T05:25:55;17.30;;;7.70;;
14235;SDS011;7202;50.718;7.072;2024-03-22T05:28:42;12.80;;;6.35;;
14235;SDS011;7202;50.718;7.072;2024-03-22T05:31:27;10.90;;;7.05;;
14235;SDS011;7202;50.718;7.072;2024-03-22T05:34:14;9.55;;;6.90;;
14235;SDS011;7202;50.718;7.072;2024-03-22T05:37:00;11.25;;;6.55;;
14235;SDS011;7202;50.718;7.072;2024-03-22T05:39:46;11.15;;;6.72;;
14235;SDS011;7202;50.718;7.072;2024-03-22T05:42:32;10.30;;;6.82;;
14235;SDS011;7202;50.718;7.072;2024-03-22T05:45:20;10.27;;;6.43;;
14235;SDS011;7202;50.718;7.072;2024-03-22T05:48:05;12.82;;;7.32;;
14235;SDS011;7202;50.718;7.072;2024-03-22T05:50:51;10.13;;;7.22;;
14235;SDS011;7202;50.718;7.072;2024-03-22T05:53:36;10.15;;;6.32;;
14235;SDS011;7202;50.718;7.072;2024-03-22T05:56:23;11.80;;;7.07;;
14235;SDS011;7202;50.718;7.072;2024-03-22T05:59:08;11.25;;;7.25;;
14235;SDS011;7202;50.718;7.072;2024-03-22T06:01:56;13.45;;;7.43;;
14235;SDS011;7202;50.718;7.072;2024-03-22T06:04:42;11.63;;;6.40;;
14235;SDS011;7202;50.718;7.072;2024-03-22T06:07:28;10.50;;;7.10;;
14235;SDS011;7202;50.718;7.072;2024-03-22T06:10:15;9.40;;;6.22;;
14235;SDS011;7202;50.718;7.072;2024-03-22T06:13:01;9.93;;;6.38;;
14235;SDS011;7202;50.718;7.072;2024-03-22T06:15:48;10.45;;;6.38;;
14235;SDS011;7202;50.718;7.072;2024-03-22T06:18:36;11.65;;;6.72;;
14235;SDS011;7202;50.718;7.072;2024-03-22T06:21:22;9.23;;;6.32;;
14235;SDS011;7202;50.718;7.072;2024-03-22T06:24:10;14.05;;;6.75;;
14235;SDS011;7202;50.718;7.072;2024-03-22T06:26:56;8.85;;;6.68;;
14235;SDS011;7202;50.718;7.072;2024-03-22T06:29:41;11.43;;;6.88;;
14235;SDS011;7202;50.718;7.072;2024-03-22T06:32:27;11.05;;;6.88;;
14235;SDS011;7202;50.718;7.072;2024-03-22T06:35:14;10.32;;;6.75;;
14235;SDS011;7202;50.718;7.072;2024-03-22T06:38:00;8.55;;;6.65;;
14235;SDS011;7202;50.718;7.072;2024-03-22T06:40:47;11.88;;;6.88;;
14235;SDS011;7202;50.718;7.072;2024-03-22T06:43:33;9.82;;;6.30;;
14235;SDS011;7202;50.718;7.072;2024-03-22T06:46:18;9.73;;;6.57;;
14235;SDS011;7202;50.718;7.072;2024-03-22T06:49:04;8.32;;;6.15;;
14235;SDS011;7202;50.718;7.072;2024-03-22T06:51:51;13.15;;;6.68;;
14235;SDS011;7202;50.718;7.072;2024-03-22T06:54:36;10.18;;;6.30;;
14235;SDS011;7202;50.718;7.072;2024-03-22T06:57:23;11.93;;;6.63;;
14235;SDS011;7202;50.718;7.072;2024-03-22T07:00:08;10.30;;;6.30;;
14235;SDS011;7202;50.718;7.072;2024-03-22T07:02:55;9.00;;;6.25;;
14235;SDS011;7202;50.718;7.072;2024-03-22T07:05:41;9.82;;;6.40;;
14235;SDS011;7202;50.718;7.072;2024-03-22T07:08:28;9.23;;;6.10;;
14235;SDS011;7202;50.718;7.072;2024-03-22T07:11:13;11.40;;;6.68;;
14235;SDS011;7202;50.718;7.072;2024-03-22T07:13:59;8.57;;;6.28;;
14235;SDS011;7202;50.718;7.072;2024-03-22T07:16:44;9.43;;;6.05;;
14235;SDS011;7202;50.718;7.072;2024-03-22T07:19:31;9.18;;;6.35;;
14235;SDS011;7202;50.718;7.072;2024-03-22T07:22:17;10.02;;;6.25;;
14235;SDS011;7202;50.718;7.072;2024-03-22T07:25:05;9.20;;;6.22;;
14235;SDS011;7202;50.718;7.072;2024-03-22T07:27:51;13.40;;;6.22;;
14235;SDS011;7202;50.718;7.072;2024-03-22T07:30:37;9.48;;;6.05;;
14235;SDS011;7202;50.718;7.072;2024-03-22T07:33:22;9.93;;;5.43;;
14235;SDS011;7202;50.718;7.072;2024-03-22T07:36:08;9.98;;;6.10;;
14235;SDS011;7202;50.718;7.072;2024-03-22T07:38:56;12.75;;;6.35;;
14235;SDS011;7202;50.718;7.072;2024-03-22T07:41:44;10.02;;;6.10;;
14235;SDS011;7202;50.718;7.072;2024-03-22T07:44:29;10.10;;;6.15;;
14235;SDS011;7202;50.718;7.072;2024-03-22T07:47:15;9.98;;;6.38;;
14235;SDS011;7202;50.718;7.072;2024-03-22T07:50:00;8.23;;;6.07;;
14235;SDS011;7202;50.718;7.072;2024-03-22T07:52:47;9.80;;;7.03;;
14235;SDS011;7202;50.718;7.072;2024-03-22T07:55:33;14.73;;;9.02;;
14235;SDS011;7202;50.718;7.072;2024-03-22T07:58:19;17.23;;;10.25;;
14235;SDS011;7202;50.718;7.072;2024-03-22T08:01:06;15.35;;;10.30;;
14235;SDS011;7202;50.718;7.072;2024-03-22T08:03:51;16.30;;;10.43;;
14235;SDS011;7202;50.718;7.072;2024-03-22T08:06:37;16.23;;;10.35;;
14235;SDS011;7202;50.718;7.072;2024-03-22T08:09:22;15.93;;;9.98;;
14235;SDS011;7202;50.718;7.072;2024-03-22T08:12:08;17.20;;;10.98;;
14235;SDS011;7202;50.718;7.072;2024-03-22T08:14:55;21.73;;;11.45;;
14235;SDS011;7202;50.718;7.072;2024-03-22T08:17:41;17.23;;;11.23;;
14235;SDS011;7202;50.718;7.072;2024-03-22T08:20:26;15.02;;;11.13;;
14235;SDS011;7202;50.718;7.072;2024-03-22T08:23:12;15.57;;;10.98;;
14235;SDS011;7202;50.718;7.072;2024-03-22T08:25:58;15.68;;;10.38;;
14235;SDS011;7202;50.718;7.072;2024-03-22T08:28:44;18.23;;;12.35;;
14235;SDS011;7202;50.718;7.072;2024-03-22T08:31:31;17.90;;;10.80;;
14235;SDS011;7202;50.718;7.072;2024-03-22T08:34:17;14.32;;;10.70;;
14235;SDS011;7202;50.718;7.072;2024-03-22T08:37:02;18.42;;;11.25;;
14235;SDS011;7202;50.718;7.072;2024-03-22T08:39:49;20.08;;;11.05;;
14235;SDS011;7202;50.718;7.072;2024-03-22T08:42:34;16.35;;;11.20;;
14235;SDS011;7202;50.718;7.072;2024-03-22T08:45:20;13.70;;;10.15;;
14235;SDS011;7202;50.718;7.072;2024-03-22T08:48:07;15.18;;;10.95;;
14235;SDS011;7202;50.718;7.072;2024-03-22T08:50:53;17.27;;;11.57;;
14235;SDS011;7202;50.718;7.072;2024-03-22T08:53:39;15.48;;;10.88;;
14235;SDS011;7202;50.718;7.072;2024-03-22T08:56:25;17.20;;;10.95;;
14235;SDS011;7202;50.718;7.072;2024-03-22T08:59:10;18.25;;;12.35;;
14235;SDS011;7202;50.718;7.072;2024-03-22T09:01:56;18.13;;;12.57;;
14235;SDS011;7202;50.718;7.072;2024-03-22T09:04:43;18.65;;;13.30;;
14235;SDS011;7202;50.718;7.072;2024-03-22T09:07:29;19.05;;;13.73;;
14235;SDS011;7202;50.718;7.072;2024-03-22T09:10:14;16.80;;;12.23;;
14235;SDS011;7202;50.718;7.072;2024-03-22T09:13:00;21.10;;;14.43;;
14235;SDS011;7202;50.718;7.072;2024-03-22T09:15:46;21.23;;;14.93;;
14235;SDS011;7202;50.718;7.072;2024-03-22T09:18:32;16.98;;;13.52;;
14235;SDS011;7202;50.718;7.072;2024-03-22T09:21:19;22.15;;;15.73;;
14235;SDS011;7202;50.718;7.072;2024-03-22T09:24:05;19.25;;;14.77;;
14235;SDS011;7202;50.718;7.072;2024-03-22T09:26:50;21.00;;;14.85;;
14235;SDS011;7202;50.718;7.072;2024-03-22T09:29:37;21.90;;;14.80;;
14235;SDS011;7202;50.718;7.072;2024-03-22T09:32:23;20.98;;;15.13;;
14235;SDS011;7202;50.718;7.072;2024-03-22T09:35:11;20.33;;;14.55;;
14235;SDS011;7202;50.718;7.072;2024-03-22T09:38:00;18.65;;;13.57;;
14235;SDS011;7202;50.718;7.072;2024-03-22T09:40:46;21.30;;;14.48;;
14235;SDS011;7202;50.718;7.072;2024-03-22T09:43:31;19.05;;;14.82;;
14235;SDS011;7202;50.718;7.072;2024-03-22T09:46:20;21.75;;;14.63;;
14235;SDS011;7202;50.718;7.072;2024-03-22T09:49:06;17.50;;;12.80;;
14235;SDS011;7202;50.718;7.072;2024-03-22T09:51:53;21.05;;;13.35;;
14235;SDS011;7202;50.718;7.072;2024-03-22T09:54:42;15.90;;;12.80;;
14235;SDS011;7202;50.718;7.072;2024-03-22T09:57:28;18.75;;;13.32;;
14235;SDS011;7202;50.718;7.072;2024-03-22T10:00:15;17.40;;;12.77;;
14235;SDS011;7202;50.718;7.072;2024-03-22T10:03:04;18.77;;;12.85;;
14235;SDS011;7202;50.718;7.072;2024-03-22T10:05:50;22.67;;;13.70;;
14235;SDS011;7202;50.718;7.072;2024-03-22T10:08:38;18.88;;;13.30;;
14235;SDS011;7202;50.718;7.072;2024-03-22T10:11:25;16.90;;;12.02;;
14235;SDS011;7202;50.718;7.072;2024-03-22T10:14:11;15.82;;;11.80;;
14235;SDS011;7202;50.718;7.072;2024-03-22T10:16:57;20.40;;;12.80;;
14235;SDS011;7202;50.718;7.072;2024-03-22T10:19:43;17.13;;;13.23;;
14235;SDS011;7202;50.718;7.072;2024-03-22T10:22:28;16.02;;;11.25;;
14235;SDS011;7202;50.718;7.072;2024-03-22T10:25:15;15.20;;;10.70;;
14235;SDS011;7202;50.718;7.072;2024-03-22T10:28:01;16.42;;;11.38;;
14235;SDS011;7202;50.718;7.072;2024-03-22T10:30:50;13.73;;;11.35;;
14235;SDS011;7202;50.718;7.072;2024-03-22T10:33:35;16.45;;;10.48;;
14235;SDS011;7202;50.718;7.072;2024-03-22T10:36:22;14.55;;;9.10;;
14235;SDS011;7202;50.718;7.072;2024-03-22T10:39:08;10.80;;;8.32;;
14235;SDS011;7202;50.718;7.072;2024-03-22T10:41:56;11.63;;;7.50;;
14235;SDS011;7202;50.718;7.072;2024-03-22T10:44:43;9.13;;;6.85;;
14235;SDS011;7202;50.718;7.072;2024-03-22T10:47:30;8.82;;;6.60;;
14235;SDS011;7202;50.718;7.072;2024-03-22T10:50:19;9.05;;;7.00;;
14235;SDS011;7202;50.718;7.072;2024-03-22T10:53:06;8.85;;;6.60;;
14235;SDS011;7202;50.718;7.072;2024-03-22T10:55:54;8.93;;;5.85;;
14235;SDS011;7202;50.718;7.072;2024-03-22T10:58:44;7.07;;;5.40;;
14235;SDS011;7202;50.718;7.072;2024-03-22T11:01:31;8.02;;;6.13;;
14235;SDS011;7202;50.718;7.072;2024-03-22T11:04:21;7.53;;;6.00;;
14235;SDS011;7202;50.718;7.072;2024-03-22T11:07:07;9.02;;;6.50;;
14235;SDS011;7202;50.718;7.072;2024-03-22T11:09:55;10.55;;;6.40;;
14235;SDS011;7202;50.718;7.072;2024-03-22T11:12:42;10.25;;;6.18;;
14235;SDS011;7202;50.718;7.072;2024-03-22T11:15:28;11.05;;;6.50;;
14235;SDS011;7202;50.718;7.072;2024-03-22T11:18:15;9.88;;;5.85;;
14235;SDS011;7202;50.718;7.072;2024-03-22T11:21:02;9.90;;;5.32;;
14235;SDS011;7202;50.718;7.072;2024-03-22T11:23:49;8.02;;;5.50;;
14235;SDS011;7202;50.718;7.072;2024-03-22T11:26:35;8.18;;;4.60;;
14235;SDS011;7202;50.718;7.072;2024-03-22T11:29:20;6.65;;;5.63;;
14235;SDS011;7202;50.718;7.072;2024-03-22T11:32:07;9.23;;;5.55;;
14235;SDS011;7202;50.718;7.072;2024-03-22T11:35:04;9.73;;;5.60;;
14235;SDS011;7202;50.718;7.072;2024-03-22T11:37:51;6.85;;;5.50;;
14235;SDS011;7202;50.718;7.072;2024-03-22T11:40:36;9.13;;;5.60;;
14235;SDS011;7202;50.718;7.072;2024-03-22T11:43:22;7.95;;;6.35;;
14235;SDS011;7202;50.718;7.072;2024-03-22T11:46:08;12.23;;;6.43;;
14235;SDS011;7202;50.718;7.072;2024-03-22T11:48:54;8.35;;;5.65;;
14235;SDS011;7202;50.718;7.072;2024-03-22T11:51:41;7.40;;;5.20;;
14235;SDS011;7202;50.718;7.072;2024-03-22T11:54:27;8.15;;;5.05;;
14235;SDS011;7202;50.718;7.072;2024-03-22T11:57:13;8.60;;;5.10;;
14235;SDS011;7202;50.718;7.072;2024-03-22T11:59:58;7.70;;;5.50;;
14235;SDS011;7202;50.718;7.072;2024-03-22T12:02:45;8.95;;;5.60;;
14235;SDS011;7202;50.718;7.072;2024-03-22T12:05:31;7.93;;;5.55;;
14235;SDS011;7202;50.718;7.072;2024-03-22T12:08:19;7.03;;;5.50;;
14235;SDS011;7202;50.718;7.072;2024-03-22T12:11:05;6.03;;;4.55;;
14235;SDS011;7202;50.718;7.072;2024-03-22T12:13:52;5.15;;;3.83;;
14235;SDS011;7202;50.718;7.072;2024-03-22T12:16:38;6.30;;;3.38;;
14235;SDS011;7202;50.718;7.072;2024-03-22T12:19:23;5.55;;;3.50;;
14235;SDS011;7202;50.718;7.072;2024-03-22T12:22:09;9.00;;;3.75;;
14235;SDS011;7202;50.718;7.072;2024-03-22T12:24:57;5.60;;;3.83;;
14235;SDS011;7202;50.718;7.072;2024-03-22T12:27:46;4.35;;;3.10;;
14235;SDS011;7202;50.718;7.072;2024-03-22T12:30:32;5.78;;;3.83;;
14235;SDS011;7202;50.718;7.072;2024-03-22T12:33:18;4.90;;;3.40;;
14235;SDS011;7202;50.718;7.072;2024-03-22T12:36:04;4.78;;;3.30;;
14235;SDS011;7202;50.718;7.072;2024-03-22T12:38:49;8.25;;;3.10;;
14235;SDS011;7202;50.718;7.072;2024-03-22T12:41:36;4.97;;;2.67;;
14235;SDS011;7202;50.718;7.072;2024-03-22T12:44:22;3.42;;;2.50;;
14235;SDS011;7202;50.718;7.072;2024-03-22T12:47:09;4.20;;;2.55;;
14235;SDS011;7202;50.718;7.072;2024-03-22T12:49:53;5.45;;;2.22;;
14235;SDS011;7202;50.718;7.072;2024-03-22T12:52:40;3.38;;;2.10;;
14235;SDS011;7202;50.718;7.072;2024-03-22T12:55:26;3.28;;;2.20;;
14235;SDS011;7202;50.718;7.072;2024-03-22T12:58:14;4.32;;;2.58;;
14235;SDS011;7202;50.718;7.072;2024-03-22T13:01:00;5.05;;;3.13;;
14235;SDS011;7202;50.718;7.072;2024-03-22T13:03:47;6.95;;;3.88;;
14235;SDS011;7202;50.718;7.072;2024-03-22T13:06:33;5.35;;;3.53;;
14235;SDS011;7202;50.718;7.072;2024-03-22T13:09:19;5.85;;;3.30;;
14235;SDS011;7202;50.718;7.072;2024-03-22T13:12:06;6.15;;;3.97;;
14235;SDS011;7202;50.718;7.072;2024-03-22T13:14:54;5.50;;;3.53;;
14235;SDS011;7202;50.718;7.072;2024-03-22T13:17:41;5.13;;;2.97;;
14235;SDS011;7202;50.718;7.072;2024-03-22T13:20:26;4.10;;;2.85;;
14235;SDS011;7202;50.718;7.072;2024-03-22T13:23:12;5.88;;;2.88;;
14235;SDS011;7202;50.718;7.072;2024-03-22T13:26:01;5.13;;;3.22;;
14235;SDS011;7202;50.718;7.072;2024-03-22T13:28:49;3.97;;;2.72;;
14235;SDS011;7202;50.718;7.072;2024-03-22T13:31:35;5.70;;;2.70;;
14235;SDS011;7202;50.718;7.072;2024-03-22T13:34:22;4.35;;;3.20;;
14235;SDS011;7202;50.718;7.072;2024-03-22T13:37:07;3.80;;;2.67;;
14235;SDS011;7202;50.718;7.072;2024-03-22T13:39:53;3.60;;;2.35;;
14235;SDS011;7202;50.718;7.072;2024-03-22T13:42:38;3.67;;;2.40;;
14235;SDS011;7202;50.718;7.072;2024-03-22T13:45:24;3.05;;;2.15;;
14235;SDS011;7202;50.718;7.072;2024-03-22T13:48:11;3.83;;;2.30;;
14235;SDS011;7202;50.718;7.072;2024-03-22T13:50:57;4.25;;;2.10;;
14235;SDS011;7202;50.718;7.072;2024-03-22T13:53:43;3.40;;;2.38;;
14235;SDS011;7202;50.718;7.072;2024-03-22T13:56:29;3.20;;;2.20;;
14235;SDS011;7202;50.718;7.072;2024-03-22T13:59:14;2.25;;;2.03;;
14235;SDS011;7202;50.718;7.072;2024-03-22T14:02:00;4.03;;;2.13;;
14235;SDS011;7202;50.718;7.072;2024-03-22T14:04:47;3.10;;;2.38;;
14235;SDS011;7202;50.718;7.072;2024-03-22T14:07:34;4.13;;;2.30;;
14235;SDS011;7202;50.718;7.072;2024-03-22T14:10:19;3.25;;;2.22;;
14235;SDS011;7202;50.718;7.072;2024-03-22T14:13:07;2.97;;;2.17;;
14235;SDS011;7202;50.718;7.072;2024-03-22T14:15:53;5.93;;;2.20;;
14235;SDS011;7202;50.718;7.072;2024-03-22T14:18:38;3.72;;;2.05;;
14235;SDS011;7202;50.718;7.072;2024-03-22T14:21:25;3.83;;;2.22;;
14235;SDS011;7202;50.718;7.072;2024-03-22T14:24:11;3.08;;;2.28;;
14235;SDS011;7202;50.718;7.072;2024-03-22T14:26:57;6.75;;;2.85;;
14235;SDS011;7202;50.718;7.072;2024-03-22T14:29:42;4.32;;;2.60;;
14235;SDS011;7202;50.718;7.072;2024-03-22T14:32:28;5.55;;;2.50;;
14235;SDS011;7202;50.718;7.072;2024-03-22T14:35:14;3.85;;;2.03;;
14235;SDS011;7202;50.718;7.072;2024-03-22T14:38:01;4.05;;;2.05;;
14235;SDS011;7202;50.718;7.072;2024-03-22T14:40:47;5.70;;;2.00;;
14235;SDS011;7202;50.718;7.072;2024-03-22T14:43:34;4.03;;;1.77;;
14235;SDS011;7202;50.718;7.072;2024-03-22T14:46:19;4.43;;;2.00;;
14235;SDS011;7202;50.718;7.072;2024-03-22T14:49:09;5.53;;;2.70;;
14235;SDS011;7202;50.718;7.072;2024-03-22T14:51:54;6.97;;;3.30;;
14235;SDS011;7202;50.718;7.072;2024-03-22T14:54:41;8.75;;;4.60;;
14235;SDS011;7202;50.718;7.072;2024-03-22T14:57:26;5.28;;;3.97;;
14235;SDS011;7202;50.718;7.072;2024-03-22T15:00:13;6.78;;;3.58;;
14235;SDS011;7202;50.718;7.072;2024-03-22T15:03:00;4.75;;;3.65;;
14235;SDS011;7202;50.718;7.072;2024-03-22T15:05:46;9.70;;;3.88;;
14235;SDS011;7202;50.718;7.072;2024-03-22T15:08:31;4.95;;;3.90;;
14235;SDS011;7202;50.718;7.072;2024-03-22T15:11:19;7.30;;;3.67;;
14235;SDS011;7202;50.718;7.072;2024-03-22T15:14:06;7.75;;;5.00;;
14235;SDS011;7202;50.718;7.072;2024-03-22T15:16:52;9.38;;;5.20;;
14235;SDS011;7202;50.718;7.072;2024-03-22T15:19:37;6.80;;;4.60;;
14235;SDS011;7202;50.718;7.072;2024-03-22T15:22:23;5.68;;;4.53;;
14235;SDS011;7202;50.718;7.072;2024-03-22T15:25:08;7.45;;;4.82;;
14235;SDS011;7202;50.718;7.072;2024-03-22T15:32:58;9.68;;;5.47;;
14235;SDS011;7202;50.718;7.072;2024-03-22T15:35:44;8.57;;;5.85;;
14235;SDS011;7202;50.718;7.072;2024-03-22T15:38:32;8.52;;;5.57;;
14235;SDS011;7202;50.718;7.072;2024-03-22T15:41:19;9.40;;;5.90;;
14235;SDS011;7202;50.718;7.072;2024-03-22T15:44:04;9.77;;;6.80;;
14235;SDS011;7202;50.718;7.072;2024-03-22T15:46:50;10.30;;;6.40;;
14235;SDS011;7202;50.718;7.072;2024-03-22T15:49:38;10.90;;;7.05;;
14235;SDS011;7202;50.718;7.072;2024-03-22T15:52:24;8.35;;;6.60;;
14235;SDS011;7202;50.718;7.072;2024-03-22T15:55:11;8.70;;;7.32;;
14235;SDS011;7202;50.718;7.072;2024-03-22T15:57:56;9.85;;;7.07;;
14235;SDS011;7202;50.718;7.072;2024-03-22T16:00:42;10.35;;;8.27;;
14235;SDS011;7202;50.718;7.072;2024-03-22T16:03:27;11.00;;;7.75;;
14235;SDS011;7202;50.718;7.072;2024-03-22T16:06:14;11.52;;;8.32;;
14235;SDS011;7202;50.718;7.072;2024-03-22T16:09:00;13.10;;;9.70;;
14235;SDS011;7202;50.718;7.072;2024-03-22T16:11:47;22.02;;;10.20;;
14235;SDS011;7202;50.718;7.072;2024-03-22T16:14:32;14.40;;;10.00;;
14235;SDS011;7202;50.718;7.072;2024-03-22T16:17:19;14.48;;;9.93;;
14235;SDS011;7202;50.718;7.072;2024-03-22T16:20:04;12.15;;;9.10;;
14235;SDS011;7202;50.718;7.072;2024-03-22T16:22:55;14.30;;;10.02;;
14235;SDS011;7202;50.718;7.072;2024-03-22T16:25:40;13.20;;;9.13;;
14235;SDS011;7202;50.718;7.072;2024-03-22T16:28:26;12.35;;;9.38;;
14235;SDS011;7202;50.718;7.072;2024-03-22T16:31:12;13.30;;;9.05;;
14235;SDS011;7202;50.718;7.072;2024-03-22T16:33:58;11.98;;;9.20;;
14235;SDS011;7202;50.718;7.072;2024-03-22T16:36:43;11.23;;;7.97;;
14235;SDS011;7202;50.718;7.072;2024-03-22T16:39:31;13.38;;;9.48;;
14235;SDS011;7202;50.718;7.072;2024-03-22T16:42:16;16.20;;;9.73;;
14235;SDS011;7202;50.718;7.072;2024-03-22T16:45:03;13.15;;;9.48;;
14235;SDS011;7202;50.718;7.072;2024-03-22T16:47:50;12.38;;;9.18;;
14235;SDS011;7202;50.718;7.072;2024-03-22T16:50:37;12.18;;;9.25;;
14235;SDS011;7202;50.718;7.072;2024-03-22T16:53:23;15.60;;;9.95;;